createdAt,value
2023-04-26T00:00:09.218Z,96085.16
2023-04-26T00:01:10.874Z,96094.91
2023-04-26T00:02:12.943Z,96095.06
2023-04-26T00:03:14.895Z,96089.78
2023-04-26T00:04:16.833Z,96089.31
2023-04-26T00:05:19.680Z,96088.31
2023-04-26T00:06:21.280Z,96090.78
2023-04-26T00:07:24.850Z,96081.34
2023-04-26T00:08:26.476Z,96084.28
2023-04-26T00:09:27.967Z,96081.97
2023-04-26T00:10:29.741Z,96088.94
2023-04-26T00:11:31.281Z,96081.97
2023-04-26T00:12:32.985Z,96079.34
2023-04-26T00:13:34.557Z,96079.16
2023-04-26T00:14:36.085Z,96078.19
2023-04-26T00:15:37.599Z,96078.03
2023-04-26T00:16:39.083Z,96077.03
2023-04-26T00:17:41.171Z,96079.53
2023-04-26T00:18:43.238Z,96078.88
2023-04-26T00:19:45.196Z,96075.72
2023-04-26T00:20:46.793Z,96080.84
2023-04-26T00:21:48.245Z,96073.06
2023-04-26T00:22:49.756Z,96083.97
2023-04-26T00:23:52.335Z,96080.81
2023-04-26T00:24:53.875Z,96076.00
2023-04-26T00:25:57.224Z,96081.47
2023-04-26T00:26:58.786Z,96080.44
2023-04-26T00:28:00.460Z,96079.47
2023-04-26T00:29:04.032Z,96081.75
2023-04-26T00:30:06.516Z,96077.13
2023-04-26T00:31:07.966Z,96081.44
2023-04-26T00:32:09.565Z,96076.31
2023-04-26T00:33:11.161Z,96076.97
2023-04-26T00:34:12.603Z,96076.78
2023-04-26T00:35:14.698Z,96074.16
2023-04-26T00:36:19.154Z,96075.66
2023-04-26T00:37:21.582Z,96085.09
2023-04-26T00:38:23.146Z,96078.81
2023-04-26T00:39:26.348Z,96084.59
2023-04-26T00:40:27.866Z,96074.34
2023-04-26T00:41:29.462Z,96086.44
2023-04-26T00:42:31.186Z,96083.63
2023-04-26T00:43:32.986Z,96086.59
2023-04-26T00:44:34.446Z,96085.91
2023-04-26T00:45:36.185Z,96081.44
2023-04-26T00:46:37.832Z,96081.88
2023-04-26T00:47:39.497Z,96088.19
2023-04-26T00:48:41.382Z,96079.06
2023-04-26T00:49:43.142Z,96084.06
2023-04-26T00:50:44.980Z,96082.09
2023-04-26T00:51:47.590Z,96081.72
2023-04-26T00:52:49.595Z,96095.97
2023-04-26T00:53:51.120Z,96090.66
2023-04-26T00:54:54.104Z,96086.88
2023-04-26T00:55:56.051Z,96085.72
2023-04-26T00:56:58.031Z,96083.06
2023-04-26T00:57:59.530Z,96083.91
2023-04-26T00:59:01.410Z,96076.78
2023-04-26T01:00:04.056Z,96088.22
2023-04-26T01:01:05.798Z,96078.28
2023-04-26T01:02:07.614Z,96086.91
2023-04-26T01:03:09.322Z,96088.06
2023-04-26T01:04:13.124Z,96099.94
2023-04-26T01:05:15.009Z,96095.28
2023-04-26T01:06:19.107Z,96099.06
2023-04-26T01:07:20.672Z,96095.41
2023-04-26T01:08:23.576Z,96102.84
2023-04-26T01:09:25.047Z,96095.56
2023-04-26T01:10:28.534Z,96097.88
2023-04-26T01:11:33.312Z,96103.00
2023-04-26T01:12:35.516Z,96099.22
2023-04-26T01:13:38.566Z,96097.72
2023-04-26T01:14:41.064Z,96098.56
2023-04-26T01:15:46.434Z,96097.44
2023-04-26T01:16:48.279Z,96095.59
2023-04-26T01:17:50.759Z,96096.25
2023-04-26T01:18:54.372Z,96093.47
2023-04-26T01:19:56.814Z,96092.47
2023-04-26T01:20:59.228Z,96091.66
2023-04-26T01:22:04.145Z,96090.84
2023-04-26T01:23:06.129Z,96082.38
2023-04-26T01:24:10.206Z,96083.69
2023-04-26T01:25:13.196Z,96082.19
2023-04-26T01:26:14.792Z,96083.47
2023-04-26T01:27:16.860Z,96080.00
2023-04-26T01:28:18.385Z,96075.88
2023-04-26T01:29:21.896Z,96080.59
2023-04-26T01:30:23.546Z,96086.84
2023-04-26T01:31:25.511Z,96086.47
2023-04-26T01:32:27.331Z,96086.94
2023-04-26T01:33:28.832Z,96091.00
2023-04-26T01:34:30.627Z,96092.03
2023-04-26T01:35:32.318Z,96093.53
2023-04-26T01:36:33.809Z,96095.31
2023-04-26T01:37:35.318Z,96091.88
2023-04-26T01:38:37.371Z,96094.34
2023-04-26T01:39:38.813Z,96101.28
2023-04-26T01:40:43.883Z,96093.53
2023-04-26T01:41:45.353Z,96096.47
2023-04-26T01:42:47.012Z,96093.97
2023-04-26T01:43:48.817Z,96093.97
2023-04-26T01:44:50.819Z,96089.38
2023-04-26T01:45:52.384Z,96095.31
2023-04-26T01:47:06.204Z,96089.22
2023-04-26T01:48:08.800Z,96083.47
2023-04-26T01:49:10.486Z,96083.47
2023-04-26T01:50:12.331Z,96091.75
2023-04-26T01:51:14.877Z,96090.25
2023-04-26T01:52:16.788Z,96090.25
2023-04-26T01:53:21.202Z,96076.22
2023-04-26T01:54:23.014Z,96084.31
2023-04-26T01:55:24.458Z,96081.13
2023-04-26T01:56:25.958Z,96078.50
2023-04-26T01:57:28.223Z,96082.28
2023-04-26T01:58:30.174Z,96084.09
2023-04-26T01:59:31.814Z,96081.44
2023-04-26T02:00:33.768Z,96083.94
2023-04-26T02:01:35.305Z,96080.38
2023-04-26T02:02:37.270Z,96078.75
2023-04-26T02:03:39.106Z,96082.06
2023-04-26T02:04:40.752Z,96080.75
2023-04-26T02:05:42.330Z,96081.44
2023-04-26T02:06:43.880Z,96077.47
2023-04-26T02:07:45.363Z,96080.25
2023-04-26T02:08:46.977Z,96082.75
2023-04-26T02:09:48.478Z,96082.44
2023-04-26T02:10:49.934Z,96087.56
2023-04-26T02:11:51.467Z,96082.44
2023-04-26T02:12:52.945Z,96083.41
2023-04-26T02:13:54.650Z,96077.47
2023-04-26T02:14:56.722Z,96076.78
2023-04-26T02:15:59.294Z,96079.25
2023-04-26T02:17:01.502Z,96078.44
2023-04-26T02:18:03.510Z,96078.75
2023-04-26T02:19:05.346Z,96079.72
2023-04-26T02:20:10.387Z,96073.84
2023-04-26T02:21:12.420Z,96081.72
2023-04-26T02:22:13.975Z,96085.22
2023-04-26T02:23:16.695Z,96073.66
2023-04-26T02:24:18.233Z,96075.47
2023-04-26T02:25:20.458Z,96076.44
2023-04-26T02:26:22.100Z,96075.47
2023-04-26T02:27:23.626Z,96069.53
2023-04-26T02:28:25.056Z,96068.72
2023-04-26T02:29:42.225Z,96071.03
2023-04-26T02:30:45.715Z,96073.47
2023-04-26T02:31:48.724Z,96071.94
2023-04-26T02:32:53.148Z,96075.03
2023-04-26T02:33:54.681Z,96075.72
2023-04-26T02:34:56.611Z,96078.19
2023-04-26T02:35:58.739Z,96080.69
2023-04-26T02:37:00.222Z,96089.81
2023-04-26T02:38:01.703Z,96095.56
2023-04-26T02:39:03.558Z,96090.28
2023-04-26T02:40:05.893Z,96095.41
2023-04-26T02:41:07.363Z,96094.59
2023-04-26T02:42:10.702Z,96096.75
2023-04-26T02:43:12.474Z,96100.22
2023-04-26T02:44:13.942Z,96098.47
2023-04-26T02:45:15.469Z,96092.50
2023-04-26T02:46:18.795Z,96094.88
2023-04-26T02:47:20.352Z,96089.28
2023-04-26T02:48:22.519Z,96090.25
2023-04-26T02:49:24.094Z,96092.06
2023-04-26T02:50:26.154Z,96086.09
2023-04-26T02:51:28.428Z,96092.34
2023-04-26T02:52:29.923Z,96091.69
2023-04-26T02:53:31.416Z,96091.22
2023-04-26T02:54:33.523Z,96090.41
2023-04-26T02:55:35.259Z,96087.44
2023-04-26T02:56:36.744Z,96092.56
2023-04-26T02:57:38.518Z,96092.63
2023-04-26T02:58:42.069Z,96095.22
2023-04-26T02:59:43.906Z,96087.44
2023-04-26T03:00:47.983Z,96087.59
2023-04-26T03:01:49.835Z,96096.50
2023-04-26T03:02:52.144Z,96087.75
2023-04-26T03:03:54.633Z,96088.56
2023-04-26T03:04:58.320Z,96082.69
2023-04-26T03:06:01.134Z,96091.59
2023-04-26T03:07:04.576Z,96089.44
2023-04-26T03:08:07.073Z,96090.88
2023-04-26T03:09:08.785Z,96086.72
2023-04-26T03:10:10.799Z,96085.72
2023-04-26T03:11:13.741Z,96087.53
2023-04-26T03:12:15.259Z,96084.03
2023-04-26T03:13:16.848Z,96078.66
2023-04-26T03:14:18.580Z,96084.94
2023-04-26T03:15:20.566Z,96076.03
2023-04-26T03:16:23.402Z,96083.78
2023-04-26T03:17:25.029Z,96093.50
2023-04-26T03:18:26.631Z,96084.94
2023-04-26T03:19:28.836Z,96092.16
2023-04-26T03:20:31.314Z,96085.09
2023-04-26T03:21:32.862Z,96086.06
2023-04-26T03:22:34.742Z,96076.28
2023-04-26T03:23:36.254Z,96081.69
2023-04-26T03:24:38.240Z,96084.78
2023-04-26T03:25:39.861Z,96084.13
2023-04-26T03:26:41.641Z,96077.19
2023-04-26T03:27:43.454Z,96079.13
2023-04-26T03:28:45.295Z,96083.75
2023-04-26T03:29:46.816Z,96089.19
2023-04-26T03:30:49.977Z,96081.53
2023-04-26T03:31:51.748Z,96081.53
2023-04-26T03:32:53.783Z,96082.69
2023-04-26T03:33:55.432Z,96078.69
2023-04-26T03:34:56.965Z,96074.53
2023-04-26T03:35:58.649Z,96072.19
2023-04-26T03:37:00.346Z,96076.81
2023-04-26T03:38:02.298Z,96079.28
2023-04-26T03:39:05.469Z,96076.13
2023-04-26T03:40:09.347Z,96076.88
2023-04-26T03:41:10.898Z,96072.88
2023-04-26T03:42:12.401Z,96074.00
2023-04-26T03:43:14.308Z,96069.84
2023-04-26T03:44:16.128Z,96077.25
2023-04-26T03:45:17.963Z,96076.84
2023-04-26T03:46:20.166Z,96067.44
2023-04-26T03:47:22.924Z,96065.75
2023-04-26T03:48:27.131Z,96074.13
2023-04-26T03:49:29.187Z,96071.78
2023-04-26T03:50:31.212Z,96069.59
2023-04-26T03:51:32.845Z,96074.63
2023-04-26T03:52:34.350Z,96075.06
2023-04-26T03:53:37.333Z,96072.34
2023-04-26T03:54:38.898Z,96081.22
2023-04-26T03:55:40.461Z,96075.56
2023-04-26T03:56:42.067Z,96066.81
2023-04-26T03:57:43.550Z,96080.28
2023-04-26T03:58:46.418Z,96073.66
2023-04-26T03:59:47.989Z,96080.19
2023-04-26T04:00:49.517Z,96076.28
2023-04-26T04:01:51.090Z,96079.38
2023-04-26T04:02:52.957Z,96087.13
2023-04-26T04:03:59.457Z,96085.16
2023-04-26T04:05:01.600Z,96078.78
2023-04-26T04:06:03.337Z,96083.91
2023-04-26T04:07:04.830Z,96081.56
2023-04-26T04:08:07.743Z,96082.53
2023-04-26T04:09:09.800Z,96085.16
2023-04-26T04:10:11.556Z,96080.59
2023-04-26T04:11:15.801Z,96082.09
2023-04-26T04:12:20.472Z,96088.19
2023-04-26T04:13:22.983Z,96084.75
2023-04-26T04:14:24.448Z,96081.25
2023-04-26T04:15:26.860Z,96094.59
2023-04-26T04:16:29.767Z,96079.88
2023-04-26T04:17:31.987Z,96085.00
2023-04-26T04:18:33.854Z,96079.75
2023-04-26T04:19:35.788Z,96084.75
2023-04-26T04:20:37.411Z,96082.94
2023-04-26T04:21:40.370Z,96076.69
2023-04-26T04:22:42.952Z,96076.25
2023-04-26T04:23:44.632Z,96074.31
2023-04-26T04:24:47.604Z,96077.31
2023-04-26T04:25:49.197Z,96080.88
2023-04-26T04:26:50.883Z,96089.03
2023-04-26T04:27:53.272Z,96074.44
2023-04-26T04:28:55.350Z,96078.72
2023-04-26T04:29:56.935Z,96081.44
2023-04-26T04:31:00.973Z,96092.22
2023-04-26T04:32:02.530Z,96091.81
2023-04-26T04:33:05.447Z,96087.88
2023-04-26T04:34:08.805Z,96094.53
2023-04-26T04:35:11.037Z,96092.56
2023-04-26T04:36:13.464Z,96103.91
2023-04-26T04:37:14.962Z,96094.06
2023-04-26T04:38:16.467Z,96096.56
2023-04-26T04:39:18.947Z,96102.53
2023-04-26T04:40:21.265Z,96099.03
2023-04-26T04:41:24.007Z,96100.41
2023-04-26T04:42:27.594Z,96098.56
2023-04-26T04:43:31.340Z,96097.44
2023-04-26T04:44:32.961Z,96089.91
2023-04-26T04:45:35.620Z,96097.38
2023-04-26T04:46:38.324Z,96088.06
2023-04-26T04:47:40.368Z,96089.41
2023-04-26T04:48:42.123Z,96085.31
2023-04-26T04:49:43.717Z,96091.13
2023-04-26T04:50:45.180Z,96088.84
2023-04-26T04:51:47.060Z,96087.41
2023-04-26T04:52:48.955Z,96092.75
2023-04-26T04:53:51.234Z,96098.50
2023-04-26T04:54:52.911Z,96087.56
2023-04-26T04:55:54.471Z,96097.66
2023-04-26T04:56:57.435Z,96091.78
2023-04-26T04:57:58.992Z,96098.09
2023-04-26T04:59:01.062Z,96094.00
2023-04-26T05:00:10.004Z,96098.22
2023-04-26T05:01:16.790Z,96095.97
2023-04-26T05:02:25.718Z,96096.84
2023-04-26T05:03:27.712Z,96096.50
2023-04-26T05:04:29.739Z,96102.81
2023-04-26T05:05:31.612Z,96101.19
2023-04-26T05:06:33.326Z,96095.91
2023-04-26T05:07:35.019Z,96097.31
2023-04-26T05:08:36.936Z,96099.94
2023-04-26T05:09:40.190Z,96093.97
2023-04-26T05:10:41.997Z,96094.81
2023-04-26T05:11:43.621Z,96101.28
2023-04-26T05:12:46.609Z,96103.63
2023-04-26T05:13:49.853Z,96104.81
2023-04-26T05:14:52.508Z,96101.03
2023-04-26T05:15:54.185Z,96103.34
2023-04-26T05:16:55.793Z,96101.75
2023-04-26T05:17:59.748Z,96104.25
2023-04-26T05:19:01.378Z,96100.03
2023-04-26T05:20:06.976Z,96105.19
2023-04-26T05:21:08.956Z,96107.84
2023-04-26T05:22:10.571Z,96105.06
2023-04-26T05:23:12.282Z,96111.06
2023-04-26T05:24:14.049Z,96117.84
2023-04-26T05:25:17.061Z,96110.84
2023-04-26T05:26:20.449Z,96113.53
2023-04-26T05:27:32.567Z,96120.13
2023-04-26T05:28:50.604Z,96119.31
2023-04-26T05:30:01.417Z,96106.63
2023-04-26T05:31:19.344Z,96119.69
2023-04-26T05:32:33.349Z,96111.81
2023-04-26T05:33:51.581Z,96120.41
2023-04-26T05:35:03.604Z,96124.06
2023-04-26T05:36:06.442Z,96120.13
2023-04-26T05:37:08.227Z,96117.00
2023-04-26T05:38:10.038Z,96128.41
2023-04-26T05:39:12.395Z,96122.97
2023-04-26T05:40:14.062Z,96121.31
2023-04-26T05:41:15.950Z,96122.31
2023-04-26T05:42:18.229Z,96125.59
2023-04-26T05:43:20.107Z,96125.97
2023-04-26T05:44:21.666Z,96126.97
2023-04-26T05:45:23.597Z,96132.63
2023-04-26T05:46:25.528Z,96122.69
2023-04-26T05:47:27.297Z,96119.56
2023-04-26T05:48:29.855Z,96123.34
2023-04-26T05:49:31.369Z,96128.44
2023-04-26T05:50:32.971Z,96127.06
2023-04-26T05:51:34.812Z,96128.66
2023-04-26T05:52:36.339Z,96130.47
2023-04-26T05:53:37.949Z,96129.50
2023-04-26T05:54:39.446Z,96135.06
2023-04-26T05:55:42.129Z,96134.00
2023-04-26T05:56:43.718Z,96123.72
2023-04-26T05:57:45.404Z,96123.66
2023-04-26T05:58:47.702Z,96123.50
2023-04-26T05:59:49.914Z,96124.66
2023-04-26T06:00:52.022Z,96136.22
2023-04-26T06:01:53.984Z,96124.03
2023-04-26T06:02:55.704Z,96121.25
2023-04-26T06:04:00.829Z,96116.38
2023-04-26T06:05:08.735Z,96127.59
2023-04-26T06:06:11.207Z,96129.34
2023-04-26T06:07:14.921Z,96126.63
2023-04-26T06:08:16.589Z,96119.75
2023-04-26T06:09:20.042Z,96119.19
2023-04-26T06:10:22.341Z,96127.28
2023-04-26T06:11:25.164Z,96134.91
2023-04-26T06:12:28.482Z,96135.25
2023-04-26T06:13:31.162Z,96130.97
2023-04-26T06:14:32.790Z,96135.75
2023-04-26T06:15:39.326Z,96136.78
2023-04-26T06:16:43.521Z,96145.63
2023-04-26T06:17:45.349Z,96128.00
2023-04-26T06:18:47.178Z,96131.53
2023-04-26T06:19:48.655Z,96124.97
2023-04-26T06:20:51.289Z,96136.72
2023-04-26T06:21:55.317Z,96137.28
2023-04-26T06:22:56.948Z,96137.66
2023-04-26T06:23:58.453Z,96138.63
2023-04-26T06:25:02.881Z,96137.13
2023-04-26T06:26:04.455Z,96132.56
2023-04-26T06:27:06.092Z,96143.88
2023-04-26T06:28:08.000Z,96137.34
2023-04-26T06:29:09.579Z,96135.63
2023-04-26T06:30:11.475Z,96135.06
2023-04-26T06:31:17.250Z,96141.47
2023-04-26T06:32:19.501Z,96141.09
2023-04-26T06:33:21.114Z,96137.00
2023-04-26T06:34:23.021Z,96146.34
2023-04-26T06:35:25.296Z,96148.91
2023-04-26T06:36:28.261Z,96146.63
2023-04-26T06:37:30.057Z,96146.69
2023-04-26T06:38:31.576Z,96152.03
2023-04-26T06:39:33.941Z,96148.91
2023-04-26T06:40:37.216Z,96145.81
2023-04-26T06:41:38.682Z,96145.91
2023-04-26T06:42:40.448Z,96146.38
2023-04-26T06:44:05.296Z,96145.56
2023-04-26T06:45:07.709Z,96144.19
2023-04-26T06:46:09.913Z,96140.88
2023-04-26T06:47:11.516Z,96136.00
2023-04-26T06:48:13.172Z,96150.31
2023-04-26T06:49:15.030Z,96142.16
2023-04-26T06:50:16.520Z,96140.50
2023-04-26T06:51:18.037Z,96144.91
2023-04-26T06:52:21.442Z,96138.19
2023-04-26T06:53:23.430Z,96137.81
2023-04-26T06:54:29.295Z,96139.03
2023-04-26T06:55:32.140Z,96138.47
2023-04-26T06:56:34.428Z,96134.72
2023-04-26T06:57:35.926Z,96141.97
2023-04-26T06:58:37.437Z,96139.88
2023-04-26T06:59:38.951Z,96131.88
2023-04-26T07:00:40.599Z,96134.84
2023-04-26T07:01:42.439Z,96139.44
2023-04-26T07:02:44.387Z,96134.47
2023-04-26T07:03:46.120Z,96136.78
2023-04-26T07:04:47.894Z,96140.75
2023-04-26T07:05:49.598Z,96133.72
2023-04-26T07:06:51.278Z,96127.13
2023-04-26T07:07:52.811Z,96133.47
2023-04-26T07:08:54.508Z,96132.84
2023-04-26T07:09:56.212Z,96141.28
2023-04-26T07:10:57.876Z,96126.31
2023-04-26T07:11:59.569Z,96133.25
2023-04-26T07:13:01.414Z,96140.56
2023-04-26T07:14:02.967Z,96132.56
2023-04-26T07:15:06.632Z,96131.03
2023-04-26T07:16:08.611Z,96129.38
2023-04-26T07:17:10.820Z,96131.13
2023-04-26T07:18:12.396Z,96132.88
2023-04-26T07:19:13.991Z,96128.84
2023-04-26T07:20:19.729Z,96128.16
2023-04-26T07:21:21.174Z,96133.66
2023-04-26T07:22:22.683Z,96127.88
2023-04-26T07:23:24.159Z,96129.44
2023-04-26T07:24:25.805Z,96122.69
2023-04-26T07:25:27.490Z,96118.31
2023-04-26T07:26:29.726Z,96119.31
2023-04-26T07:27:31.472Z,96120.00
2023-04-26T07:28:33.553Z,96113.50
2023-04-26T07:29:35.078Z,96120.66
2023-04-26T07:30:36.624Z,96118.22
2023-04-26T07:31:38.100Z,96112.38
2023-04-26T07:32:39.672Z,96120.16
2023-04-26T07:33:41.177Z,96116.31
2023-04-26T07:34:42.803Z,96120.91
2023-04-26T07:35:44.541Z,96117.03
2023-04-26T07:36:46.039Z,96106.69
2023-04-26T07:37:47.538Z,96113.34
2023-04-26T07:38:49.127Z,96114.78
2023-04-26T07:39:50.651Z,96112.31
2023-04-26T07:40:52.496Z,96115.31
2023-04-26T07:41:54.233Z,96115.22
2023-04-26T07:42:55.684Z,96113.78
2023-04-26T07:43:57.678Z,96117.56
2023-04-26T07:44:59.489Z,96109.56
2023-04-26T07:46:04.357Z,96114.53
2023-04-26T07:47:06.158Z,96106.81
2023-04-26T07:48:07.938Z,96114.94
2023-04-26T07:49:09.626Z,96112.06
2023-04-26T07:50:11.831Z,96115.97
2023-04-26T07:51:14.259Z,96117.19
2023-04-26T07:52:15.783Z,96111.84
2023-04-26T07:53:17.259Z,96117.22
2023-04-26T07:54:18.721Z,96112.97
2023-04-26T07:55:20.403Z,96113.47
2023-04-26T07:56:23.879Z,96122.03
2023-04-26T07:57:25.584Z,96116.41
2023-04-26T07:58:27.076Z,96119.81
2023-04-26T07:59:28.770Z,96111.91
2023-04-26T08:00:30.286Z,96110.16
2023-04-26T08:01:31.747Z,96112.69
2023-04-26T08:02:43.376Z,96115.75
2023-04-26T08:03:46.050Z,96110.00
2023-04-26T08:04:55.735Z,96120.59
2023-04-26T08:05:59.063Z,96122.34
2023-04-26T08:07:01.999Z,96117.53
2023-04-26T08:08:03.742Z,96122.16
2023-04-26T08:09:05.539Z,96123.00
2023-04-26T08:10:07.543Z,96125.47
2023-04-26T08:11:10.086Z,96120.03
2023-04-26T08:12:12.597Z,96118.84
2023-04-26T08:13:14.507Z,96118.56
2023-04-26T08:14:16.029Z,96123.38
2023-04-26T08:15:17.554Z,96119.59
2023-04-26T08:16:19.088Z,96119.88
2023-04-26T08:17:20.789Z,96126.81
2023-04-26T08:18:22.272Z,96125.56
2023-04-26T08:19:23.851Z,96128.72
2023-04-26T08:20:25.419Z,96123.38
2023-04-26T08:21:27.822Z,96133.25
2023-04-26T08:22:29.522Z,96129.44
2023-04-26T08:23:35.650Z,96133.06
2023-04-26T08:24:37.189Z,96123.22
2023-04-26T08:25:38.674Z,96128.16
2023-04-26T08:26:41.126Z,96129.00
2023-04-26T08:27:44.698Z,96129.81
2023-04-26T08:28:46.602Z,96126.06
2023-04-26T08:29:48.237Z,96133.31
2023-04-26T08:30:49.702Z,96130.97
2023-04-26T08:31:51.314Z,96132.03
2023-04-26T08:32:52.924Z,96130.19
2023-04-26T08:33:54.734Z,96129.56
2023-04-26T08:34:56.815Z,96125.91
2023-04-26T08:36:01.205Z,96125.41
2023-04-26T08:37:03.133Z,96131.59
2023-04-26T08:38:05.042Z,96124.84
2023-04-26T08:39:06.988Z,96128.78
2023-04-26T08:40:11.738Z,96130.25
2023-04-26T08:41:14.958Z,96128.78
2023-04-26T08:42:17.357Z,96130.03
2023-04-26T08:43:18.844Z,96130.88
2023-04-26T08:44:28.915Z,96127.75
2023-04-26T08:45:31.381Z,96134.53
2023-04-26T08:46:55.556Z,96128.78
2023-04-26T08:48:03.917Z,96134.75
2023-04-26T08:49:19.826Z,96136.78
2023-04-26T08:50:23.207Z,96133.88
2023-04-26T08:51:25.943Z,96128.31
2023-04-26T08:52:28.958Z,96132.13
2023-04-26T08:53:31.666Z,96133.31
2023-04-26T08:54:34.896Z,96128.38
2023-04-26T08:55:37.678Z,96131.38
2023-04-26T08:56:39.653Z,96137.47
2023-04-26T08:57:43.542Z,96133.13
2023-04-26T08:58:45.119Z,96135.56
2023-04-26T08:59:47.776Z,96135.69
2023-04-26T09:00:50.375Z,96139.34
2023-04-26T09:01:53.360Z,96133.19
2023-04-26T09:02:54.999Z,96142.81
2023-04-26T09:03:57.502Z,96136.28
2023-04-26T09:04:59.784Z,96136.31
2023-04-26T09:06:04.750Z,96140.72
2023-04-26T09:07:07.302Z,96130.63
2023-04-26T09:08:09.435Z,96130.84
2023-04-26T09:09:13.598Z,96132.47
2023-04-26T09:10:22.371Z,96131.84
2023-04-26T09:11:23.948Z,96132.72
2023-04-26T09:12:25.587Z,96133.13
2023-04-26T09:13:32.606Z,96131.44
2023-04-26T09:14:34.474Z,96132.00
2023-04-26T09:15:36.031Z,96138.81
2023-04-26T09:16:37.927Z,96136.50
2023-04-26T09:17:41.657Z,96133.84
2023-04-26T09:18:57.186Z,96133.78
2023-04-26T09:20:00.462Z,96122.91
2023-04-26T09:21:07.581Z,96126.19
2023-04-26T09:22:09.428Z,96125.78
2023-04-26T09:23:11.119Z,96126.25
2023-04-26T09:24:13.883Z,96114.25
2023-04-26T09:25:17.747Z,96124.34
2023-04-26T09:26:20.998Z,96114.41
2023-04-26T09:27:25.332Z,96114.69
2023-04-26T09:28:27.342Z,96121.59
2023-04-26T09:29:28.806Z,96119.78
2023-04-26T09:30:31.347Z,96122.00
2023-04-26T09:31:59.143Z,96119.16
2023-04-26T09:33:06.620Z,96110.03
2023-04-26T09:34:10.983Z,96113.56
2023-04-26T09:35:28.109Z,96110.78
2023-04-26T09:36:29.597Z,96109.63
2023-04-26T09:37:31.310Z,96106.69
2023-04-26T09:38:42.584Z,96099.63
2023-04-26T09:39:44.060Z,96108.09
2023-04-26T09:40:47.525Z,96113.06
2023-04-26T09:41:49.012Z,96110.19
2023-04-26T09:43:00.262Z,96107.16
2023-04-26T09:44:01.934Z,96108.72
2023-04-26T09:45:06.978Z,96112.72
2023-04-26T09:46:08.466Z,96104.09
2023-04-26T09:47:12.012Z,96106.53
2023-04-26T09:48:25.949Z,96103.00
2023-04-26T09:49:28.898Z,96101.72
2023-04-26T09:50:31.496Z,96111.56
2023-04-26T09:51:33.218Z,96109.03
2023-04-26T09:52:43.484Z,96104.97
2023-04-26T09:53:49.928Z,96109.44
2023-04-26T09:54:53.472Z,96113.78
2023-04-26T09:55:56.509Z,96120.66
2023-04-26T09:57:01.692Z,96116.34
2023-04-26T09:58:10.985Z,96109.19
2023-04-26T09:59:13.219Z,96112.94
2023-04-26T10:00:15.284Z,96104.88
2023-04-26T10:01:19.189Z,96108.59
2023-04-26T10:02:23.095Z,96115.41
2023-04-26T10:03:25.637Z,96108.59
2023-04-26T10:04:27.211Z,96113.16
2023-04-26T10:05:31.638Z,96110.66
2023-04-26T10:06:35.061Z,96108.59
2023-04-26T10:07:36.764Z,96109.84
2023-04-26T10:08:38.363Z,96108.00
2023-04-26T10:09:41.758Z,96101.41
2023-04-26T10:10:43.770Z,96106.78
2023-04-26T10:11:45.332Z,96104.72
2023-04-26T10:12:47.457Z,96101.00
2023-04-26T10:13:51.244Z,96107.94
2023-04-26T10:14:52.756Z,96096.88
2023-04-26T10:15:56.454Z,96101.00
2023-04-26T10:16:58.384Z,96098.69
2023-04-26T10:18:00.043Z,96109.63
2023-04-26T10:19:01.656Z,96099.91
2023-04-26T10:20:06.360Z,96104.09
2023-04-26T10:21:12.774Z,96097.69
2023-04-26T10:22:22.195Z,96102.84
2023-04-26T10:23:27.703Z,96098.53
2023-04-26T10:24:29.587Z,96098.06
2023-04-26T10:25:39.014Z,96089.22
2023-04-26T10:26:47.104Z,96091.72
2023-04-26T10:27:49.434Z,96097.63
2023-04-26T10:28:53.808Z,96096.94
2023-04-26T10:29:59.578Z,96100.25
2023-04-26T10:31:01.386Z,96102.16
2023-04-26T10:32:03.945Z,96106.72
2023-04-26T10:33:05.610Z,96096.00
2023-04-26T10:34:21.126Z,96095.78
2023-04-26T10:35:25.115Z,96086.31
2023-04-26T10:36:28.024Z,96093.53
2023-04-26T10:37:29.565Z,96090.66
2023-04-26T10:38:32.130Z,96089.34
2023-04-26T10:39:33.792Z,96088.69
2023-04-26T10:40:41.308Z,96086.84
2023-04-26T10:41:42.852Z,96085.88
2023-04-26T10:42:44.374Z,96085.78
2023-04-26T10:43:45.847Z,96088.88
2023-04-26T10:44:47.736Z,96088.06
2023-04-26T10:45:49.413Z,96092.69
2023-04-26T10:46:52.661Z,96096.09
2023-04-26T10:48:20.463Z,96094.16
2023-04-26T10:49:25.730Z,96094.72
2023-04-26T10:50:27.966Z,96092.03
2023-04-26T10:51:29.560Z,96077.00
2023-04-26T10:52:31.197Z,96090.81
2023-04-26T10:53:54.016Z,96081.84
2023-04-26T10:54:57.369Z,96081.06
2023-04-26T10:55:59.327Z,96090.13
2023-04-26T10:57:01.191Z,96084.31
2023-04-26T10:58:02.670Z,96079.63
2023-04-26T10:59:28.311Z,96079.44
2023-04-26T11:00:32.767Z,96081.72
2023-04-26T11:01:34.911Z,96079.03
2023-04-26T11:02:59.602Z,96071.00
2023-04-26T11:04:05.271Z,96076.91
2023-04-26T11:05:08.912Z,96079.78
2023-04-26T11:06:15.254Z,96070.31
2023-04-26T11:07:16.741Z,96067.63
2023-04-26T11:08:20.937Z,96067.28
2023-04-26T11:09:48.006Z,96070.84
2023-04-26T11:11:11.080Z,96067.34
2023-04-26T11:12:15.006Z,96070.78
2023-04-26T11:13:17.818Z,96069.84
2023-04-26T11:14:19.581Z,96072.88
2023-04-26T11:15:21.604Z,96069.00
2023-04-26T11:16:26.609Z,96064.81
2023-04-26T11:17:28.225Z,96065.09
2023-04-26T11:18:30.932Z,96069.09
2023-04-26T11:19:33.079Z,96056.88
2023-04-26T11:20:34.921Z,96069.16
2023-04-26T11:21:37.039Z,96056.34
2023-04-26T11:22:42.092Z,96060.88
2023-04-26T11:23:53.401Z,96070.28
2023-04-26T11:24:55.013Z,96073.22
2023-04-26T11:26:03.263Z,96065.56
2023-04-26T11:27:09.266Z,96056.91
2023-04-26T11:28:10.866Z,96054.38
2023-04-26T11:29:18.953Z,96052.09
2023-04-26T11:30:21.111Z,96052.81
2023-04-26T11:31:22.748Z,96056.91
2023-04-26T11:32:24.736Z,96052.72
2023-04-26T11:33:26.837Z,96043.03
2023-04-26T11:34:33.367Z,96038.06
2023-04-26T11:35:40.172Z,96034.13
2023-04-26T11:36:41.762Z,96034.25
2023-04-26T11:37:45.563Z,96030.59
2023-04-26T11:38:47.239Z,96022.81
2023-04-26T11:39:48.835Z,96025.09
2023-04-26T11:41:00.695Z,96026.66
2023-04-26T11:42:09.954Z,96029.06
2023-04-26T11:43:14.025Z,96034.56
2023-04-26T11:44:20.152Z,96026.19
2023-04-26T11:45:21.736Z,96028.78
2023-04-26T11:46:24.246Z,96031.66
2023-04-26T11:47:30.657Z,96020.25
2023-04-26T11:48:33.846Z,96013.72
2023-04-26T11:49:38.999Z,96022.28
2023-04-26T11:50:42.504Z,96016.22
2023-04-26T11:51:47.902Z,96010.34
2023-04-26T11:52:49.780Z,96013.34
2023-04-26T11:53:51.815Z,96005.03
2023-04-26T11:55:04.246Z,96013.13
2023-04-26T11:56:17.212Z,96011.09
2023-04-26T11:57:19.440Z,96006.50
2023-04-26T11:58:21.139Z,96010.03
2023-04-26T11:59:27.079Z,96010.41
2023-04-26T12:00:28.865Z,96013.66
2023-04-26T12:01:30.759Z,96007.88
2023-04-26T12:02:32.496Z,96012.72
2023-04-26T12:03:37.707Z,96006.78
2023-04-26T12:04:41.275Z,96004.44
2023-04-26T12:05:43.195Z,95995.63
2023-04-26T12:06:46.595Z,96004.16
2023-04-26T12:07:56.621Z,96002.78
2023-04-26T12:08:58.476Z,96000.06
2023-04-26T12:10:14.231Z,96001.94
2023-04-26T12:11:17.598Z,96002.66
2023-04-26T12:12:19.121Z,96002.59
2023-04-26T12:13:20.960Z,96001.19
2023-04-26T12:14:23.127Z,96001.09
2023-04-26T12:15:28.609Z,96000.25
2023-04-26T12:16:30.323Z,96008.56
2023-04-26T12:17:32.109Z,96009.06
2023-04-26T12:18:33.747Z,96008.75
2023-04-26T12:19:36.551Z,96005.28
2023-04-26T12:20:42.538Z,96010.25
2023-04-26T12:21:44.182Z,96012.09